Nearby METAR Reports

 

KIAG - Niagara Falls, New York, USA
Distance from station: W 12mi, 20km
Updated: 11/22/2019 7:00am
Overcast
Overcast
 Wind from W
Wind: W 18 mph , 30 km/h, Gust: 36 mph , 57 km/h
Temperature: 39°F , 4°C
Wind Chill: 30°F , -1°C
Dew Point: 34°F , 1°C
Humidity: 81%
Barometer: 1007.8 hPa
Clouds: Overcast
Visibility: 10 miles , 16 km
Cloud details: Mostly cloudy 2600 ft
Mostly cloudy 7000 ft
Overcast 10000 ft
2019/11/22 12:00 KIAG 221200Z 28016G31KT 10SM BKN026 BKN070 OVC100 04/01 A2976 RMK AO2 PK WND 30026/1155 T00440006
KBUF - Buffalo/Cheektow, New York, USA
Distance from station: S 13mi, 21km
Updated: 11/22/2019 6:54am
Light rain, Overcast
Light rain, Overcast
 Wind from W
Wind: W 13 mph , 20 km/h, Gust: 22 mph , 35 km/h
Temperature: 43°F , 6°C
Wind Chill: 36°F , 2°C
Dew Point: 34°F , 1°C
Humidity: 71%
Barometer: 1007.5 hPa
Summary: Light rain
Clouds: Overcast
Visibility: 10 miles , 16 km
Cloud details: Mostly cloudy 2200 ft
Mostly cloudy 3000 ft
Overcast 6000 ft
2019/11/22 11:54 KBUF 221154Z 28011G19KT 10SM -RA BKN022 BKN030 OVC060 06/01 A2975 RMK AO2 PK WND 27027/1058 RAB51 SLP079 P0000 60000 70004 T00560011 10106 20056 51021 $
 
KROC - Rochester, New York, USA
Distance from station: E 51mi, 82km
Updated: 11/22/2019 6:54am
Light rain, Overcast
Light rain, Overcast
 Wind from WNW
Wind: WNW 10 mph , 17 km/h, Gust: 26 mph , 43 km/h
Temperature: 45°F , 7°C
Wind Chill: 40°F , 4°C
Dew Point: 39°F , 4°C
Humidity: 81%
Barometer: 1006.1 hPa
Summary: Light rain
Clouds: Overcast
Visibility: 10 miles , 16 km
Cloud details: Partly cloudy 1900 ft
Mostly cloudy 2400 ft
Overcast 4600 ft
2019/11/22 11:54 KROC 221154Z 29009G23KT 10SM -RA SCT019 BKN024 OVC046 07/04 A2971 RMK AO2 PK WND 27027/1127 SLP066 P0001 60002 70005 T00670039 10111 20067 53015
CYSN - St. Catharines A, Ontario, Canada
Distance from station: WNW 25mi, 40km
Updated: 11/21/2019 9:00pm
NOT Current
Overcast
Overcast
 Wind from SSW
Wind: SSW 24 mph , 39 km/h, Gust: 33 mph , 54 km/h
Temperature: 48°F , 9°C
Wind Chill: 40°F , 4°C
Dew Point: 45°F , 7°C
Humidity: 87%
Barometer: 1005.8 hPa
Clouds: Overcast
Visibility: 15 miles , 24 km
Cloud details: Overcast 1900 ft
2019/11/22 02:00 CYSN 220200Z 21021G29KT 15SM OVC019 09/07 A2970 RMK SC8 LAST STFD OBS/NEXT 22 1200UTC SLP059
 
KOLE - Olean, New York, USA
Distance from station: SSE 63mi, 102km
Updated: 11/22/2019 6:55am
Drizzle, Overcast
Drizzle, Overcast
 Wind from W
Wind: W 6 mph , 9 km/h, Gust: 18 mph , 30 km/h
Temperature: 37°F , 3°C
Wind Chill: 32°F , 0°C
Dew Point: 37°F , 3°C
Humidity: 100%
Barometer: 1006.4 hPa
Summary: Drizzle
Clouds: Overcast
Visibility: 5 miles , 8 km
Cloud details: Overcast 800 ft
2019/11/22 11:55 KOLE 221155Z AUTO 27005G16KT 5SM DZ OVC008 03/03 A2972 RMK AO2
KJHW - Jamestown, New York, USA
Distance from station: SSW 74mi, 119km
Updated: 11/22/2019 6:56am
Light rain, Mist, Overcast
Light rain, Mist, Overcast
 Wind from WNW
Wind: WNW 22 mph , 35 km/h, Gust: 28 mph , 44 km/h
Temperature: 37°F , 3°C
Wind Chill: 26°F , -3°C
Dew Point: 36°F , 2°C
Humidity: 93%
Barometer: 1008.8 hPa
Summary: Light rain, Mist
Clouds: Overcast
Visibility: 6 miles , 10 km
Cloud details: Mostly cloudy 900 ft
Overcast 1400 ft
2019/11/22 11:56 KJHW 221156Z AUTO 29019G24KT 6SM -RA BR BKN009 OVC014 03/02 A2979 RMK AO2 PK WND 31027/1128 CIG 007V012 SLP104 P0000 60004 70006 T00280017 10083 20028 53013
 
CWWZ - Port Weller (mar, Ontario, Canada
Distance from station: WNW 28mi, 45km
Updated: 11/22/2019 6:00am

 Wind from W
Wind: W 26 mph , 43 km/h, Gust: 32 mph , 52 km/h
Temperature: 43°F , 6°C
Wind Chill: 33°F , 1°C
Dew Point: 37°F , 3°C
Humidity: 81%
2019/11/22 11:00 CWWZ 221100Z AUTO 28023G28KT 06/03 RMK AO1 PK WND 28032/1026 SLP074 T00590029 53018
CWPC - Port Colborne(Au, Ontario, Canada
Distance from station: WSW 33mi, 53km
Updated: 11/22/2019 6:00am

 Wind from NW
Wind: NW 26 mph , 43 km/h, Gust: 33 mph , 54 km/h
Temperature: 41°F , 5°C
Wind Chill: 31°F , -1°C
Dew Point: 34°F , 1°C
Humidity: 76%
2019/11/22 11:00 CWPC 221100Z AUTO 31023G29KT 05/01 RMK AO1 PK WND 29033/1038 SLP075 T00540009 52014
 
CXVN - Vineland (au8), Ontario, Canada
Distance from station: W 36mi, 58km
Updated: 11/22/2019 6:00am

 Wind from W
Wind: W 20 mph , 31 km/h, Gust: 26 mph , 43 km/h
Temperature: 43°F , 6°C
Wind Chill: 34°F , 1°C
Dew Point: 34°F , 1°C
Humidity: 71%
2019/11/22 11:00 CXVN 221100Z AUTO 28017G23KT 06/01 RMK AO1 PK WND 28026/1034 SLP077 T00550007 53018
CYTZ - Toronto Il Vor, Ontario, Canada
Distance from station: NW 50mi, 81km
Updated: 11/22/2019 6:00am
Overcast
Overcast
 Wind from W
Wind: W 24 mph , 39 km/h, Gust: 33 mph , 54 km/h
Temperature: 41°F , 5°C
Wind Chill: 31°F , -1°C
Dew Point: 32°F , 0°C
Humidity: 70%
Barometer: 1006.1 hPa
Clouds: Overcast
Visibility: 9 miles , 14 km
Cloud details: Partly cloudy 3300 ft
Mostly cloudy 6500 ft
Overcast 12000 ft
2019/11/22 11:00 CYTZ 221100Z AUTO 28021G29KT 9SM SCT033 BKN065 OVC120 05/00 A2971 RMK SLP066
 
CXTO - Toronto City, Ontario, Canada
Distance from station: NW 52mi, 84km
Updated: 11/22/2019 6:00am

 
Temperature: 41°F , 5°C
Dew Point: 32°F , 0°C
Humidity: 70%
2019/11/22 11:00 CXTO 221100Z AUTO 05/M00 RMK AO1 SLP068 T00541001 53013
KDKK - Dunkirk, New York, USA
Distance from station: SW 52mi, 84km
Updated: 11/22/2019 6:53am
Light rain, Overcast
Light rain, Overcast
 Wind from W
Wind: W 16 mph , 26 km/h, Gust: 25 mph , 41 km/h
Temperature: 43°F , 6°C
Wind Chill: 35°F , 2°C
Dew Point: 34°F , 1°C
Humidity: 71%
Barometer: 1009.8 hPa
Summary: Light rain
Clouds: Overcast
Visibility: 10 miles , 16 km
Cloud details: Mostly cloudy 2400 ft
Mostly cloudy 3000 ft
Overcast 5000 ft
2019/11/22 11:53 KDKK 221153Z AUTO 27014G22KT 10SM -RA BKN024 BKN030 OVC050 06/01 A2982 RMK AO2 PK WND 27026/1132 SLP102 P0000 60001 70009 T00560006 10106 20056 53025
 
CYOO - Oshawa, Ontario, Canada
Distance from station: N 56mi, 90km
Updated: 11/22/2019 6:20am
Overcast
Overcast
 Wind from W
Wind: W 20 mph , 31 km/h, Gust: 29 mph , 46 km/h
Temperature: 39°F , 4°C
Wind Chill: 29°F , -2°C
Dew Point: 34°F , 1°C
Humidity: 81%
Barometer: 1005.1 hPa
Clouds: Overcast
Visibility: 9 miles , 14 km
Cloud details: Partly cloudy 2000 ft
Partly cloudy 2800 ft
Mostly cloudy 3600 ft
Overcast 12000 ft
2019/11/22 11:20 CYOO 221120Z AUTO 28017G25KT 9SM SCT020 SCT028 BKN036 OVC120 04/01 A2968 RMK SLP057
CWWB - Burlington Piers, Ontario, Canada
Distance from station: WNW 56mi, 91km
Updated: 11/22/2019 6:00am

 Wind from WSW
Wind: WSW 9 mph , 15 km/h, Gust: 17 mph , 28 km/h
Temperature: 41°F , 5°C
Wind Chill: 35°F , 2°C
Dew Point: 32°F , 0°C
Humidity: 70%
2019/11/22 11:00 CWWB 221100Z AUTO 25008G15KT 05/M00 RMK AO1 PK WND 25021/1046 SLP075 T00541004 52018
 
CYYZ - Toronto/Pearson, Ontario, Canada
Distance from station: NW 60mi, 96km
Updated: 11/22/2019 6:00am
Mostly cloudy
Mostly cloudy
 Wind from W
Wind: W 28 mph , 44 km/h, Gust: 37 mph , 59 km/h
Temperature: 39°F , 4°C
Wind Chill: 27°F , -3°C
Dew Point: 30°F , -1°C
Humidity: 70%
Barometer: 1006.1 hPa
Clouds: Mostly cloudy
Visibility: 15 miles , 24 km
Cloud details: Partly cloudy 2500 ft
Mostly cloudy 12000 ft
2019/11/22 11:00 CYYZ 221100Z 28024G32KT 15SM SCT025 BKN120 04/M01 A2971 RMK SC4AC3 SLP068
CYKZ - Toronto Buttonvi, Ontario, Canada
Distance from station: NW 62mi, 99km
Updated: 01/03/2019 4:00am
NOT Current
Partly cloudy
Partly cloudy
 Wind from WSW
Wind: WSW 5 mph , 7 km/h
Temperature: 27°F , -3°C
Wind Chill: 21°F , -6°C
Dew Point: 23°F , -5°C
Humidity: 86%
Barometer: 1010.8 hPa
Clouds: Partly cloudy
Visibility: 15 miles , 24 km
Cloud details: Partly cloudy 4000 ft
2019/01/03 09:00 CYKZ 030900Z 25004KT 15SM SCT040 M03/M05 A2985 RMK SC3 LAST STFD OBS FAREWELL SLP118
 
CXHM - Hamilton Rbg Cs, Ontario, Canada
Distance from station: W 62mi, 100km
Updated: 11/22/2019 6:00am

 Wind from W
Wind: W 10 mph , 17 km/h, Gust: 20 mph , 31 km/h
2019/11/22 11:00 CXHM 221100Z AUTO 27009G17KT RMK AO1 PK WND 27020/1045 53019
KDSV - Dansville, New York, USA
Distance from station: SE 62mi, 100km
Updated: 11/22/2019 6:54am
Overcast
Overcast
 Wind from W
Wind: W 9 mph , 15 km/h
Temperature: 48°F , 9°C
Wind Chill: 44°F , 7°C
Dew Point: 39°F , 4°C
Humidity: 71%
Barometer: 1006.4 hPa
Clouds: Overcast
Visibility: 10 miles , 16 km
Cloud details: Mostly cloudy 2500 ft
Mostly cloudy 3100 ft
Overcast 4600 ft
2019/11/22 11:54 KDSV 221154Z AUTO 28008KT 10SM BKN025 BKN031 OVC046 09/04 A2972 RMK AO2 SLP074 60000 T00890044 10122 20089 53005
 
CYHM - Hamilton Airport, Ontario, Canada
Distance from station: W 63mi, 101km
Updated: 11/22/2019 6:00am
Overcast
Overcast
 Wind from W
Wind: W 17 mph , 28 km/h, Gust: 26 mph , 43 km/h
Temperature: 37°F , 3°C
Wind Chill: 27°F , -3°C
Dew Point: 32°F , 0°C
Humidity: 81%
Barometer: 1007.5 hPa
Clouds: Overcast
Visibility: 15 miles , 24 km
Cloud details: Mostly cloudy 2200 ft
Mostly cloudy 5000 ft
Overcast 11000 ft
2019/11/22 11:00 CYHM 221100Z 28015G23KT 15SM BKN022 BKN050 OVC110 03/00 A2975 RMK SC6SC1AC1 SLP083
CWNC - Cobourg (mars), Ontario, Canada
Distance from station: NNE 63mi, 102km
Updated: 11/22/2019 6:00am

 Wind from WNW
Wind: WNW 15 mph , 24 km/h, Gust: 24 mph , 39 km/h
Temperature: 43°F , 6°C
Wind Chill: 36°F , 2°C
Dew Point: 36°F , 2°C
Humidity: 76%
2019/11/22 11:00 CWNC 221100Z AUTO 29013G21KT 06/02 RMK AO1 PK WND 28022/1036 SLP040 T00610022 53015